AirNav   Pilot Hours Calculator
 
 893 users online  

12PN WCAU Heliport
Philadelphia, Pennsylvania, USA

GOING TO PHILADELPHIA?


FAA INFORMATION EFFECTIVE 07 NOVEMBER 2019

Location

FAA Identifier: 12PN
Lat/Long: 40-00-26.4040N 075-12-55.6470W
40-00.440067N 075-12.927450W
40.0073344,-75.2154575
(estimated)
Elevation: 230 ft. / 70 m (estimated)
Variation: 11W (1985)
From city: 6 miles NE of PHILADELPHIA, PA
Time zone: UTC -5 (UTC -4 during Daylight Saving Time)
Zip code: 19004

Heliport Operations

Heliport use: Private use. Permission required prior to landing
Activation date: 02/1979
Control tower: no
ARTCC: NEW YORK CENTER
FSS: WILLIAMSPORT FLIGHT SERVICE STATION
Attendance: UNATNDD
Wind indicator: yes
Segmented circle: no
Lights: FOR PERIMETER LGTS CALL 610-955-8565.

Heliport Communications

WX AWOS-3 at LOM (8 nm N): 118.925 (215-646-1068)
WX ASOS at PHL (8 nm S): PHONE 215-492-9617
WX ASOS at PNE (10 nm NE): PHONE 215-677-0146
WX AWOS-3T at OQN (17 nm W): 121.4 ((610) 692-6190)
WX ASOS at VAY (17 nm E): 119.325 (609-267-1176)

Nearby radio navigation aids

VOR radial/distance  VOR name  Freq  Var
PTWr138/20.4POTTSTOWN VORTAC116.5009W
ARDr234/20.4YARDLEY VOR/DME108.2010W
MXEr085/21.6MODENA VORTAC113.2009W
OODr020/22.6WOODSTOWN VORTAC112.8010W
DQOr052/26.8DUPONT VORTAC114.0010W
GXUr282/28.4MC GUIRE VORTAC110.6012W
VCNr348/30.4CEDAR LAKE VOR/DME115.2010W
RBVr261/35.1ROBBINSVILLE VORTAC113.8010W
CYNr298/37.8COYLE VORTAC113.4010W

 
NDB name  Hdg/Dist  Freq  Var  ID
AMBLER168/7.827512WING .. -. --.
RAINBOW005/35.536311WRNB .-. -. -...

Heliport Services

Runway Information

Helipad H1

Dimensions: 60 x 60 ft. / 18 x 18 m
60 X 60 PAD WITHIN 300 X 200 TURF LANDING/TAKEOFF AREA.
Surface: asphalt, in fair condition
Runway edge lights: PERI
Latitude: 40-00.440067N
Longitude: 075-12.927450W
Elevation: 230.0 ft.
Traffic pattern: leftleft
Markings: basic, in fair condition

Heliport Ownership and Management from official FAA records

Ownership: Privately-owned
Owner: WCAU-TV
10 MONUMENT RD
BALA CYNWYD, PA 19004
Phone 215-668-5675
Manager: ANGELO ZANGARE
10 MONUMENT RD
BALA CYNWYD, PA 19004
Phone 215-668-5675

Additional Remarks

TLOF 40' DIAMETER (ASPHALT)
FOR CD CTC PHILADELPHIA APCH AT 800-354-9884.
APP/DEP PATHS; 160 APCH/340 DEP.

Instrument Procedures

There are no published instrument procedures at 12PN.

Some nearby airports with instrument procedures:

KLOM - Wings Field Airport (8 nm N)
KPHL - Philadelphia International Airport (8 nm S)
KPNE - Northeast Philadelphia Airport (10 nm NE)
N10 - Perkiomen Valley Airport (15 nm NW)
KOQN - Brandywine Regional Airport (17 nm W)
KVAY - South Jersey Regional Airport (17 nm E)
7N7 - Spitfire Aerodrome (18 nm SW)
19N - Camden County Airport (18 nm SE)
N14 - Flying W Airport (19 nm E)
17N - Cross Keys Airport (20 nm SE)
 
Loc | Ops | Rwys | IFR | FBO | Links
Com | Nav | Svcs | Stats | Notes
Area around 12PN (WCAU Heliport)
 
Road maps at: MapQuest Bing Google
 
Aerial photo
No photo
 
Sectional chart

 
Airport distance calculator
Flying to WCAU Heliport? Find the distance to fly.

From to 12PN

Sunrise and sunset
Times for 19-Nov-2019
 Local
(UTC-5)
 Zulu
(UTC)
Morning civil twilight06:2211:22
Sunrise06:5211:52
Sunset16:4121:41
Evening civil twilight17:1022:10

Current date and time
Zulu (UTC)  20-Nov-2019 02:05:53
Local (UTC-5)  19-Nov-2019 21:05:53
 
METAR
KLOM 
8nm N 
200155Z AUTO 00000KT 10SM CLR 03/01 A2988 RMK AO2 T00270010
KPHL 
8nm S 
200154Z 03005KT 10SM OVC180 07/00 A2989 RMK AO2 SLP121 T00720000 $
KPNE 
10nm NE 
200154Z 01003KT 10SM CLR 08/01 A2990 RMK AO2 SLP124 T00780006
KOQN 
17nm W 
200155Z AUTO 00000KT 10SM 06/01 A2988 RMK AO2
KVAY 
18nm E 
ASOS 119.325 609-267-1176
200154Z AUTO 00000KT 9SM CLR 04/02 A2989 RMK AO2 SLP121 T00440022
TAF
KPHL 
8nm S 
192119Z 1921/2024 VRB05KT P6SM BKN150 FM200200 35005KT P6SM OVC100 FM201000 32010KT P6SM BKN050 FM201600 33012G22KT P6SM BKN050 FM202200 32010KT P6SM SCT050
KPNE 
10nm NE 
191732Z 1918/2018 29005KT P6SM FEW040 SCT250 FM192200 29005KT P6SM BKN150 FM200200 35005KT P6SM OVC100 FM201000 32010KT P6SM BKN050 FM201600 33012G22KT P6SM BKN050
NOTAMs
Click for the latest NOTAMs
NOTAMs are issued by the DoD/FAA and will open in a separate window not controlled by AirNav.

 

 
 

Would you like to see your business listed on this page?

 If your business provides an interesting product or service to pilots, flight crews, aircraft, or users of the WCAU Heliport, you should consider listing it here.  To start the listing process, click on the button below
 
Add a business
 

Other Pages about WCAU Heliport

Update a link
 
Copyright © AirNav, LLC. All rights reserved. Privacy Policy  Contact